K40B

Clayton Lake Airport

Clayton Lake, Maine, USA
METAR K40B 210916Z AUTO 00000KT M02/M03 A3012 RMK AO1 SLP217 T10161030 52007
Observed Flight Rules
Apr-21 @ 09:16 UTC (18 minutes ago)
Temperatures Readings
Current -2°C / 28°F
Dewpoint -3°C / 27°F
Humidity 93%
Altimeter 30.12" Hg
Pressure 1021.7 hPa
Elevation 314
METAR K40B 210916Z AUTO 00000KT M02/M03 A3012 RMK AO1 SLP217 T10161030 52007
Observed Flight Rules
Apr-21 @ 09:16 UTC
(18 minutes ago)
Temperature Dewpoint
-2°C / 28°F -3°C / 27°F
Humidity Altimeter Pressure
93% 30.12" Hg 1021.7 hPa